Terminal Aerodrome Forecast
Issued by NWS

Home | Current Version | Previous Version | Text Only | Print | Product List | Glossary On
Versions: 1 2 3 4 5 6 7 8 9 10 11 12 13 14 15 16 17
000
FTUS45 KTFX 050500
TAFGTF
TAF
KGTF 050520Z 0506/0606 22012KT P6SM BKN250
     FM051900 22018G25KT P6SM BKN120
     FM060200 23012KT P6SM BKN150=

USA.gov is the U.S. government's official web portal to all federal, state and local government web resources and services.